Time;durP1;ratioP1;P1;durP2;ratioP2;P2;SDS_P1;SDS_P2;PMS_P1;PMS_P2;Temp;Humidity;BMP_temperature;BMP_pressure;BME280_temperature;BME280_humidity;BME280_pressure;Samples;Min_cycle;Max_cycle;Signal;HPM_P1;HPM_P2
2022/08/31 00:04:49;;;;;;;6.35;2.47;;;;;;;17.76;68.02;101877.88;6184671;23;20076;-70
2022/08/31 00:07:15;;;;;;;5.72;2.30;;;;;;;17.72;69.03;101883.00;6185413;23;20024;-70
2022/08/31 00:09:40;;;;;;;6.22;2.20;;;;;;;17.65;69.57;101876.88;6183798;23;20281;-70
2022/08/31 00:12:06;;;;;;;2.88;2.50;;;;;;;17.66;69.63;101882.09;6184782;23;20005;-70
2022/08/31 00:14:31;;;;;;;7.10;2.47;;;;;;;17.59;69.77;101867.72;6185045;23;20001;-71
2022/08/31 00:16:57;;;;;;;3.63;2.47;;;;;;;17.58;70.63;101879.75;6158748;23;20434;-70
2022/08/31 00:19:22;;;;;;;3.05;2.40;;;;;;;17.61;70.60;101881.16;6183483;23;20009;-69
2022/08/31 00:21:48;;;;;;;6.22;2.53;;;;;;;17.60;71.04;101872.09;6185160;23;20009;-69
2022/08/31 00:24:13;;;;;;;2.60;2.40;;;;;;;17.57;71.41;101875.34;6184354;23;20308;-71
2022/08/31 00:26:40;;;;;;;7.43;2.60;;;;;;;17.55;71.98;101869.28;6184542;23;20012;-71
2022/08/31 00:29:05;;;;;;;5.00;2.58;;;;;;;17.54;72.50;101878.56;6184467;23;20005;-71
2022/08/31 00:31:31;;;;;;;4.38;2.75;;;;;;;17.52;72.25;101869.78;6183694;23;20012;-69
2022/08/31 00:33:56;;;;;;;3.50;2.70;;;;;;;17.49;73.17;101878.50;6158611;23;20011;-69
2022/08/31 00:36:25;;;;;;;6.45;2.47;;;;;;;17.42;73.80;101878.66;6157222;23;20304;-70
2022/08/31 00:38:51;;;;;;;3.47;2.40;;;;;;;17.43;74.15;101877.56;6185063;23;20036;-69
2022/08/31 00:41:20;;;;;;;3.00;2.30;;;;;;;17.40;74.85;101879.97;6155553;23;20637;-71
2022/08/31 00:43:59;;;;;;;3.70;2.53;;;;;;;17.41;75.10;101876.13;6182615;23;20001;-71
2022/08/31 00:46:29;;;;;;;3.28;2.45;;;;;;;17.44;75.40;101876.50;6158443;23;20027;-69
2022/08/31 00:49:06;;;;;;;4.82;2.25;;;;;;;17.42;75.61;101872.34;6158569;23;20059;-69
2022/08/31 00:51:35;;;;;;;2.28;2.08;;;;;;;17.43;75.80;101880.31;6183341;23;20084;-69
2022/08/31 00:54:01;;;;;;;4.75;2.22;;;;;;;17.38;76.43;101871.16;6157395;23;20001;-69
2022/08/31 00:56:30;;;;;;;8.27;2.47;;;;;;;17.41;76.64;101871.53;6183521;23;20055;-69
2022/08/31 00:58:56;;;;;;;3.70;2.50;;;;;;;17.36;76.93;101865.94;6184389;23;20411;-70
2022/08/31 01:01:22;;;;;;;3.33;2.30;;;;;;;17.36;77.13;101863.19;6180831;23;20032;-71
2022/08/31 01:03:48;;;;;;;5.75;2.38;;;;;;;17.33;77.31;101874.63;6184338;23;20032;-71
2022/08/31 01:06:16;;;;;;;5.60;2.20;;;;;;;17.34;77.42;101866.19;6184102;23;20096;-71
2022/08/31 01:08:42;;;;;;;3.97;2.38;;;;;;;17.31;77.74;101869.41;6184457;23;20084;-71
2022/08/31 01:11:08;;;;;;;6.32;2.10;;;;;;;17.26;78.20;101868.50;6181828;23;20036;-71
2022/08/31 01:13:33;;;;;;;4.75;2.22;;;;;;;17.29;78.19;101876.22;6184104;23;20009;-71
2022/08/31 01:16:07;;;;;;;5.72;2.50;;;;;;;17.33;77.86;101869.16;6184507;23;20411;-71
2022/08/31 01:18:33;;;;;;;2.95;2.15;;;;;;;17.29;78.09;101873.50;6184570;23;20323;-71
2022/08/31 01:21:24;;;;;;;6.72;3.17;;;;;;;17.31;77.31;101868.59;6183161;23;20180;-71
2022/08/31 01:23:52;;;;;;;5.72;2.53;;;;;;;17.24;78.75;101865.16;6184583;23;20005;-71
2022/08/31 01:26:23;;;;;;;2.20;2.05;;;;;;;17.18;79.12;101865.09;6183912;23;20016;-71
2022/08/31 01:28:51;;;;;;;4.00;2.30;;;;;;;17.14;79.73;101863.09;6184310;23;20013;-71
2022/08/31 01:31:26;;;;;;;5.82;2.40;;;;;;;17.13;79.44;101858.69;6182333;23;20404;-71
2022/08/31 01:33:52;;;;;;;4.28;2.10;;;;;;;17.12;79.70;101860.59;6184080;23;20005;-71
2022/08/31 01:36:18;;;;;;;7.80;2.42;;;;;;;17.09;80.41;101860.25;6183808;23;20005;-71
2022/08/31 01:38:45;;;;;;;4.63;2.20;;;;;;;17.11;80.00;101867.13;6184108;23;20020;-71
2022/08/31 01:41:11;;;;;;;4.38;2.40;;;;;;;17.10;80.44;101870.94;6183741;23;20032;-71
2022/08/31 01:43:36;;;;;;;4.03;2.28;;;;;;;17.08;80.39;101861.34;6157886;23;20005;-71
2022/08/31 01:46:09;;;;;;;5.63;2.50;;;;;;;17.02;81.35;101860.41;6182184;23;20009;-70
2022/08/31 01:48:36;;;;;;;3.85;2.00;;;;;;;17.03;81.19;101859.34;6184823;23;20009;-71
2022/08/31 01:51:02;;;;;;;6.22;2.40;;;;;;;17.05;81.32;101870.84;6182586;23;20001;-71
2022/08/31 01:53:28;;;;;;;3.17;2.30;;;;;;;17.04;80.58;101866.44;6184013;23;20108;-71
2022/08/31 01:55:53;;;;;;;5.22;2.50;;;;;;;17.03;81.10;101867.53;6184331;23;20422;-71
2022/08/31 01:58:18;;;;;;;4.47;2.30;;;;;;;17.03;81.20;101867.53;6183880;23;20001;-71
2022/08/31 02:00:44;;;;;;;4.97;2.30;;;;;;;16.96;81.46;101864.09;6180400;23;20008;-71
2022/08/31 02:03:10;;;;;;;5.15;2.47;;;;;;;16.96;81.83;101875.03;6183688;23;20005;-71
2022/08/31 02:05:36;;;;;;;2.65;2.10;;;;;;;16.94;81.90;101883.50;6157973;23;20016;-71
2022/08/31 02:08:05;;;;;;;2.38;1.88;;;;;;;16.94;81.85;101882.63;6183870;23;20001;-71
2022/08/31 02:10:30;;;;;;;3.03;2.35;;;;;;;16.94;82.23;101882.63;6181781;23;20048;-70
2022/08/31 02:12:56;;;;;;;4.32;2.00;;;;;;;16.95;82.02;101876.09;6184355;23;20080;-70
2022/08/31 02:15:22;;;;;;;3.42;2.28;;;;;;;16.91;81.92;101877.66;6183581;23;20009;-70
2022/08/31 02:17:47;;;;;;;4.07;2.42;;;;;;;16.94;82.01;101872.56;6184232;23;20004;-71
2022/08/31 02:20:13;;;;;;;3.97;2.25;;;;;;;16.91;82.37;101866.72;6181153;23;20009;-71
2022/08/31 02:22:39;;;;;;;3.05;2.25;;;;;;;16.92;81.91;101880.16;6183349;23;20075;-71
2022/08/31 02:25:05;;;;;;;7.47;2.58;;;;;;;16.93;82.07;101881.00;6183500;23;20204;-71
2022/08/31 02:27:30;;;;;;;3.13;2.15;;;;;;;16.92;82.35;101879.31;6156994;23;20009;-71
2022/08/31 02:29:56;;;;;;;4.93;2.58;;;;;;;16.86;82.66;101880.25;6183317;23;20328;-70
2022/08/31 02:32:22;;;;;;;2.35;2.15;;;;;;;16.79;83.45;101885.88;6182937;23;20047;-71
2022/08/31 02:34:48;;;;;;;3.38;2.40;;;;;;;16.81;82.49;101886.47;6184128;23;20007;-71
2022/08/31 02:37:16;;;;;;;4.28;2.40;;;;;;;16.84;83.23;101884.06;6183373;23;20008;-71
2022/08/31 02:39:41;;;;;;;5.97;2.45;;;;;;;16.79;83.22;101889.44;6157573;23;20001;-70
2022/08/31 02:42:07;;;;;;;5.55;2.35;;;;;;;16.77;83.65;101882.53;6156552;23;20155;-70
2022/08/31 02:44:32;;;;;;;2.92;2.35;;;;;;;16.80;83.23;101882.91;6185855;23;20005;-70
2022/08/31 02:46:57;;;;;;;5.55;2.42;;;;;;;16.76;83.86;101880.91;6186184;23;20179;-71
2022/08/31 02:49:23;;;;;;;3.25;2.00;;;;;;;16.66;84.68;101881.50;6185279;23;20005;-71
2022/08/31 02:51:49;;;;;;;3.75;2.38;;;;;;;16.61;85.39;101878.66;6185098;23;20445;-70
2022/08/31 02:54:14;;;;;;;5.60;2.30;;;;;;;16.64;85.10;101879.00;6159203;23;20374;-71
2022/08/31 02:56:40;;;;;;;7.00;2.25;;;;;;;16.58;85.65;101873.69;6185502;23;20493;-71
2022/08/31 02:59:06;;;;;;;3.67;2.40;;;;;;;16.54;87.02;101875.22;6185564;23;20005;-70
2022/08/31 03:01:31;;;;;;;2.17;2.08;;;;;;;16.53;86.73;101876.28;6180281;23;20005;-71
2022/08/31 03:03:58;;;;;;;3.03;2.50;;;;;;;16.42;87.56;101864.31;6185064;23;20052;-71
2022/08/31 03:06:23;;;;;;;4.07;2.22;;;;;;;16.45;87.91;101877.50;6186011;23;20005;-71
2022/08/31 03:08:49;;;;;;;4.20;2.60;;;;;;;16.41;87.68;101877.16;6185437;23;20017;-71
2022/08/31 03:11:16;;;;;;;4.00;2.30;;;;;;;16.37;88.05;101875.97;6158081;23;19997;-71
2022/08/31 03:13:41;;;;;;;2.95;2.28;;;;;;;16.40;87.98;101871.94;6159017;23;20047;-71
2022/08/31 03:16:08;;;;;;;6.15;2.30;;;;;;;16.39;88.13;101879.28;6185249;23;20001;-71
2022/08/31 03:18:33;;;;;;;5.82;2.30;;;;;;;16.38;87.77;101874.91;6185801;23;20012;-71
2022/08/31 03:20:59;;;;;;;5.28;2.50;;;;;;;16.45;86.94;101872.03;6184384;23;20013;-71
2022/08/31 03:23:24;;;;;;;4.20;2.30;;;;;;;16.42;86.59;101875.25;6185964;23;20319;-71
2022/08/31 03:25:50;;;;;;;3.75;2.47;;;;;;;16.38;86.93;101872.16;6185540;23;20009;-70
2022/08/31 03:28:18;;;;;;;4.85;2.55;;;;;;;16.29;88.26;101877.16;6159419;23;20005;-70
2022/08/31 03:30:43;;;;;;;5.20;2.58;;;;;;;16.32;87.79;101881.31;6184623;23;20013;-71
2022/08/31 03:33:09;;;;;;;2.72;2.53;;;;;;;16.28;87.86;101886.41;6184893;23;20016;-71
2022/08/31 03:35:34;;;;;;;4.25;2.60;;;;;;;16.30;87.16;101884.28;6159090;23;20005;-71
2022/08/31 03:38:01;;;;;;;7.07;2.63;;;;;;;16.28;87.24;101883.69;6186088;23;20008;-71
2022/08/31 03:40:30;;;;;;;4.95;2.58;;;;;;;16.26;88.04;101891.28;6184669;23;20093;-71
2022/08/31 03:42:56;;;;;;;5.70;2.40;;;;;;;16.29;86.13;101888.09;6185094;23;20474;-71
2022/08/31 03:45:22;;;;;;;3.88;2.50;;;;;;;16.28;85.89;101880.94;6184440;23;20084;-71
2022/08/31 03:47:47;;;;;;;4.03;2.70;;;;;;;16.30;86.06;101887.03;6185555;23;20040;-71
2022/08/31 03:50:14;;;;;;;3.85;2.40;;;;;;;16.22;85.87;101884.63;6185122;23;20059;-71
2022/08/31 03:52:40;;;;;;;5.75;2.40;;;;;;;16.15;86.71;101886.66;6184952;23;20005;-70
2022/08/31 03:55:06;;;;;;;4.82;2.40;;;;;;;16.12;87.26;101898.88;6184507;23;20009;-71
2022/08/31 03:57:32;;;;;;;2.70;2.30;;;;;;;16.10;86.53;101890.09;6158227;23;20013;-71
2022/08/31 03:59:57;;;;;;;5.22;2.60;;;;;;;16.08;86.32;101881.31;6185420;23;20005;-71
2022/08/31 04:02:23;;;;;;;6.30;2.58;;;;;;;16.05;86.51;101884.50;6155655;23;20005;-71
2022/08/31 04:04:53;;;;;;;10.80;2.55;;;;;;;16.02;86.75;101882.25;6159060;23;20036;-72
2022/08/31 04:07:20;;;;;;;5.88;2.70;;;;;;;15.90;87.53;101886.88;6183875;23;20206;-73
2022/08/31 04:09:46;;;;;;;5.13;2.50;;;;;;;15.87;87.03;101882.72;6185630;23;20020;-74
2022/08/31 04:12:13;;;;;;;8.23;2.80;;;;;;;15.89;87.45;101882.47;6184449;23;20005;-72
2022/08/31 04:14:39;;;;;;;6.97;2.50;;;;;;;15.87;86.76;101876.44;6185306;23;20012;-71
2022/08/31 04:17:04;;;;;;;4.03;2.70;;;;;;;15.88;87.11;101880.81;6158788;23;20522;-75
2022/08/31 04:19:30;;;;;;;3.72;2.35;;;;;;;15.82;86.36;101881.75;6158356;23;20012;-71
2022/08/31 04:21:56;;;;;;;7.63;2.90;;;;;;;15.87;85.64;101879.16;6183365;23;20009;-74
2022/08/31 04:24:21;;;;;;;7.50;2.75;;;;;;;15.86;85.14;101882.94;6184517;23;20427;-71
2022/08/31 04:26:50;;;;;;;8.32;2.50;;;;;;;15.82;85.14;101884.47;6185099;23;20001;-74
2022/08/31 04:29:15;;;;;;;4.47;2.40;;;;;;;15.76;84.92;101886.22;6184685;23;20005;-73
2022/08/31 04:31:41;;;;;;;4.72;3.35;;;;;;;15.76;84.44;101889.78;6183444;23;20001;-75
2022/08/31 04:34:06;;;;;;;5.25;2.20;;;;;;;15.71;84.39;101886.91;6184696;23;20013;-74
2022/08/31 04:36:31;;;;;;;3.65;2.22;;;;;;;15.74;83.05;101897.34;6184409;23;20043;-74
2022/08/31 04:38:59;;;;;;;3.55;2.60;;;;;;;15.70;82.99;101888.00;6158720;23;20441;-74
2022/08/31 04:41:26;;;;;;;3.47;2.10;;;;;;;15.72;82.85;101896.78;6181933;23;20049;-72
2022/08/31 04:43:55;;;;;;;7.75;2.70;;;;;;;15.71;82.94;101895.09;6184625;23;20001;-73
2022/08/31 04:46:21;;;;;;;3.10;1.98;;;;;;;15.66;83.15;101900.44;6184383;23;20120;-71
2022/08/31 04:48:47;;;;;;;6.80;2.40;;;;;;;15.62;83.02;101901.13;6184706;23;20307;-72
2022/08/31 04:51:20;;;;;;;3.97;2.38;;;;;;;15.58;83.88;101904.34;6183924;23;20007;-73
2022/08/31 04:53:48;;;;;;;5.28;2.20;;;;;;;15.54;83.63;101897.66;6184965;23;20005;-71
2022/08/31 04:56:19;;;;;;;3.45;2.10;;;;;;;15.47;84.77;101896.94;6184305;23;20005;-72
2022/08/31 04:58:48;;;;;;;2.35;2.15;;;;;;;15.49;84.38;101913.91;6184818;23;20008;-72
2022/08/31 05:01:16;;;;;;;5.55;2.80;;;;;;;15.42;84.49;101913.19;6180794;23;20039;-72
2022/08/31 05:03:42;;;;;;;3.88;2.20;;;;;;;15.39;84.35;101905.47;6158143;23;20013;-72
2022/08/31 05:06:15;;;;;;;3.92;2.50;;;;;;;15.35;84.70;101910.56;6182786;23;20005;-71
2022/08/31 05:08:41;;;;;;;3.35;2.30;;;;;;;15.31;84.87;101901.16;6184564;23;20008;-73
2022/08/31 05:11:16;;;;;;;6.97;2.28;;;;;;;15.33;83.85;101906.38;6183386;23;20005;-71
2022/08/31 05:13:41;;;;;;;5.03;2.38;;;;;;;15.37;83.21;101905.69;6184769;23;20012;-74
2022/08/31 05:16:09;;;;;;;4.88;2.55;;;;;;;15.33;83.19;101909.09;6157415;23;20039;-74
2022/08/31 05:18:39;;;;;;;4.78;2.25;;;;;;;15.33;82.74;101914.56;6184465;23;20467;-71
2022/08/31 05:21:11;;;;;;;3.08;2.00;;;;;;;15.34;82.08;101917.06;6184679;23;20009;-73
2022/08/31 05:23:37;;;;;;;4.25;2.05;;;;;;;15.28;81.42;101917.97;6157927;23;20005;-72
2022/08/31 05:26:03;;;;;;;5.68;2.35;;;;;;;15.20;81.72;101912.84;6182616;23;20441;-72
2022/08/31 05:28:28;;;;;;;3.08;2.20;;;;;;;15.25;81.12;101910.28;6157966;23;20016;-73
2022/08/31 05:30:55;;;;;;;3.15;2.13;;;;;;;15.20;81.12;101919.13;6182250;23;20017;-70
2022/08/31 05:33:23;;;;;;;4.45;2.40;;;;;;;15.19;80.85;101922.91;6184204;23;20013;-71
2022/08/31 05:35:48;;;;;;;2.75;1.90;;;;;;;15.16;80.85;101919.84;6183754;23;20032;-70
2022/08/31 05:38:14;;;;;;;6.57;2.22;;;;;;;15.23;80.07;101915.09;6183368;23;20012;-71
2022/08/31 05:40:39;;;;;;;5.13;2.13;;;;;;;15.27;80.03;101915.50;6157249;23;20008;-73
2022/08/31 05:43:04;;;;;;;3.92;1.90;;;;;;;15.27;79.25;101919.03;6158572;23;20009;-72
2022/08/31 05:45:30;;;;;;;5.90;2.03;;;;;;;15.26;78.83;101920.09;6183688;23;20012;-71
2022/08/31 05:47:55;;;;;;;6.22;1.88;;;;;;;15.25;78.56;101923.91;6183625;23;20009;-72
2022/08/31 05:50:21;;;;;;;8.20;2.40;;;;;;;15.25;77.56;101929.34;6183751;23;20001;-74
2022/08/31 05:52:46;;;;;;;4.45;1.90;;;;;;;15.28;77.06;101928.03;6184446;23;20032;-73
2022/08/31 05:55:11;;;;;;;6.25;2.00;;;;;;;15.24;77.31;101924.94;6183729;23;20005;-71
2022/08/31 05:57:39;;;;;;;6.72;2.03;;;;;;;15.25;76.97;101926.63;6184630;23;20084;-71
2022/08/31 06:00:06;;;;;;;4.85;2.13;;;;;;;15.27;76.72;101929.13;6184273;23;20016;-71
2022/08/31 06:02:31;;;;;;;8.88;2.28;;;;;;;15.19;75.90;101931.09;6181269;23;20009;-74
2022/08/31 06:04:57;;;;;;;4.13;2.10;;;;;;;15.25;75.82;101937.53;6183809;23;20304;-72
2022/08/31 06:07:22;;;;;;;7.00;2.15;;;;;;;15.31;74.92;101936.63;6184139;23;20099;-71
2022/08/31 06:09:47;;;;;;;3.95;1.98;;;;;;;15.38;75.36;101944.69;6184349;23;20013;-75
2022/08/31 06:12:13;;;;;;;2.78;1.90;;;;;;;15.41;74.73;101947.81;6157272;23;20016;-71
2022/08/31 06:14:40;;;;;;;3.80;2.00;;;;;;;15.36;74.62;101942.19;6156849;23;20581;-72
2022/08/31 06:17:06;;;;;;;5.63;2.00;;;;;;;15.42;73.72;101933.09;6184725;23;20008;-73
2022/08/31 06:19:31;;;;;;;5.43;1.88;;;;;;;15.46;73.34;101932.63;6185818;23;20033;-73
2022/08/31 06:21:57;;;;;;;2.53;2.20;;;;;;;15.44;73.75;101938.31;6185888;23;20005;-72
2022/08/31 06:24:22;;;;;;;2.78;1.83;;;;;;;15.48;73.15;101947.72;6184510;23;20021;-73
2022/08/31 06:26:54;;;;;;;4.30;1.90;;;;;;;15.56;73.07;101941.09;6186677;23;20005;-73
2022/08/31 06:29:20;;;;;;;3.55;1.90;;;;;;;15.59;73.32;101954.28;6186048;23;20103;-71
2022/08/31 06:31:46;;;;;;;10.25;1.90;;;;;;;15.63;73.56;101950.03;6186223;23;20415;-71
2022/08/31 06:34:13;;;;;;;8.23;1.90;;;;;;;15.69;72.75;101954.53;6185309;23;20382;-74
2022/08/31 06:36:39;;;;;;;5.38;1.98;;;;;;;15.79;72.25;101964.09;6186084;23;20085;-71
2022/08/31 06:39:04;;;;;;;3.78;1.83;;;;;;;15.81;71.90;101954.63;6185414;23;20029;-72
2022/08/31 06:41:33;;;;;;;5.35;2.35;;;;;;;15.84;71.13;101969.69;6185196;23;20009;-71
2022/08/31 06:44:00;;;;;;;4.55;2.10;;;;;;;15.80;71.03;101968.50;6184210;23;20009;-73
2022/08/31 06:46:26;;;;;;;4.78;1.98;;;;;;;15.81;71.40;101970.16;6185958;23;20005;-73
2022/08/31 06:48:53;;;;;;;5.30;1.98;;;;;;;15.82;70.35;101964.47;6186123;23;20005;-72
2022/08/31 06:51:19;;;;;;;2.05;1.80;;;;;;;15.84;70.29;101958.78;6185582;23;20067;-71
2022/08/31 06:53:44;;;;;;;3.03;1.80;;;;;;;15.86;69.54;101964.84;6185974;23;20013;-71
2022/08/31 06:56:12;;;;;;;3.75;1.77;;;;;;;15.85;70.07;101964.00;6159651;23;20414;-73
2022/08/31 06:58:38;;;;;;;9.82;2.50;;;;;;;15.88;69.88;101968.16;6185804;23;20028;-71
2022/08/31 07:01:16;;;;;;;7.80;2.08;;;;;;;15.91;70.21;101964.94;6182854;23;20088;-73
2022/08/31 07:03:43;;;;;;;5.88;2.13;;;;;;;16.02;70.07;101961.44;6184515;23;20121;-78
2022/08/31 07:06:16;;;;;;;4.22;2.00;;;;;;;16.13;69.41;101965.25;6186385;23;20415;-75
2022/08/31 07:08:43;;;;;;;3.42;1.80;;;;;;;16.16;68.33;101974.88;6159543;23;20489;-75
2022/08/31 07:11:14;;;;;;;4.28;1.80;;;;;;;16.20;68.20;101970.59;6184453;23;20434;-75
2022/08/31 07:13:40;;;;;;;2.35;2.15;;;;;;;16.21;67.02;101972.25;6185217;23;20001;-75
2022/08/31 07:16:09;;;;;;;5.20;1.75;;;;;;;16.23;67.25;101975.56;6185947;23;20011;-75
2022/08/31 07:18:34;;;;;;;3.47;1.95;;;;;;;16.25;66.80;101971.56;6185640;23;20073;-75
2022/08/31 07:21:10;;;;;;;3.55;1.75;;;;;;;16.29;66.88;101966.47;6185757;23;20001;-75
2022/08/31 07:23:36;;;;;;;3.78;1.75;;;;;;;16.35;66.38;101968.25;6185983;23;20005;-75
2022/08/31 07:26:08;;;;;;;6.63;1.80;;;;;;;16.34;66.26;101971.22;6185840;23;20012;-76
2022/08/31 07:28:33;;;;;;;;;;;;;;;16.46;66.86;101974.78;6159941;23;20060;-76
2022/08/31 07:31:02;;;;;;;11.10;2.25;;;;;;;16.39;65.83;101974.88;6158850;23;19912;-75
2022/08/31 07:33:28;;;;;;;3.47;1.90;;;;;;;16.46;66.21;101970.16;6158591;23;20008;-72
2022/08/31 07:35:53;;;;;;;4.00;1.85;;;;;;;16.54;66.07;101976.31;6185623;23;20009;-74
2022/08/31 07:43:54;;;;;;;7.00;2.30;;;;;;;16.60;65.96;101968.00;6184903;23;20075;-79
2022/08/31 07:46:19;;;;;;;3.13;2.17;;;;;;;16.67;65.86;101970.63;6185973;23;20035;-78
2022/08/31 07:48:44;;;;;;;8.25;1.90;;;;;;;16.73;65.59;101975.13;6185271;23;20437;-76
2022/08/31 07:51:11;;;;;;;4.97;1.90;;;;;;;16.84;65.95;101978.94;6158599;23;20009;-75
2022/08/31 07:53:41;;;;;;;6.18;2.35;;;;;;;16.92;64.97;101972.28;6183980;23;20001;-75
2022/08/31 07:56:06;;;;;;;9.25;2.88;;;;;;;16.95;64.74;101978.13;6182213;23;20040;-73
2022/08/31 07:58:33;;;;;;;10.40;2.30;;;;;;;16.99;64.92;101973.00;6157774;23;20474;-77
2022/08/31 08:01:01;;;;;;;3.13;1.88;;;;;;;17.05;65.02;101972.03;6181980;23;20067;-78
2022/08/31 08:03:28;;;;;;;9.30;2.20;;;;;;;17.13;65.70;101974.38;6184506;23;20363;-78
2022/08/31 08:05:55;;;;;;;4.43;1.95;;;;;;;17.18;65.19;101982.69;6184179;23;20063;-75
2022/08/31 08:08:21;;;;;;;5.63;2.53;;;;;;;17.16;64.70;101984.00;6185083;23;20075;-76
2022/08/31 08:10:47;;;;;;;3.20;1.98;;;;;;;17.23;65.23;101987.44;6184545;23;20017;-74
2022/08/31 08:13:14;;;;;;;9.68;2.50;;;;;;;17.26;64.94;101994.34;6157876;23;20411;-73
2022/08/31 08:15:40;;;;;;;4.47;2.20;;;;;;;17.34;64.69;101985.75;6184888;23;20005;-77
2022/08/31 08:18:05;;;;;;;5.55;2.00;;;;;;;17.40;64.28;101984.78;6184394;23;20008;-75
2022/08/31 08:20:32;;;;;;;7.38;2.30;;;;;;;17.41;64.47;101991.06;6157655;23;20012;-74
2022/08/31 08:22:57;;;;;;;7.03;2.22;;;;;;;17.43;63.93;101997.97;6184938;23;20005;-74
2022/08/31 08:25:23;;;;;;;4.47;2.15;;;;;;;17.43;63.91;101994.41;6185199;23;20379;-73
2022/08/31 08:27:54;;;;;;;4.22;2.17;;;;;;;17.50;65.07;102000.56;6158401;23;20009;-73
2022/08/31 08:30:19;;;;;;;3.05;2.30;;;;;;;17.53;64.65;102006.38;6157098;23;20005;-74
2022/08/31 08:32:46;;;;;;;5.03;2.20;;;;;;;17.57;64.64;102006.72;6183829;23;20437;-75
2022/08/31 08:35:12;;;;;;;6.22;2.63;;;;;;;17.63;64.93;102010.38;6184470;23;20016;-75
2022/08/31 08:37:39;;;;;;;3.63;2.10;;;;;;;17.66;65.03;102013.47;6157428;23;20001;-75
2022/08/31 08:40:07;;;;;;;7.80;2.80;;;;;;;17.70;64.92;102014.63;6183652;23;20013;-75
2022/08/31 08:42:32;;;;;;;6.03;2.45;;;;;;;17.74;64.93;102011.41;6158119;23;20326;-75
2022/08/31 08:44:58;;;;;;;4.55;2.40;;;;;;;17.75;64.36;102008.41;6183980;23;20005;-75
2022/08/31 08:47:30;;;;;;;9.38;2.92;;;;;;;17.81;65.06;102012.09;6184631;23;20371;-78
2022/08/31 08:50:00;;;;;;;4.05;2.70;;;;;;;17.86;65.02;102014.91;6184038;23;20005;-76
2022/08/31 08:52:36;;;;;;;4.13;2.53;;;;;;;17.89;65.08;102004.34;6182892;23;20013;-77
2022/08/31 08:55:06;;;;;;;6.90;2.30;;;;;;;17.89;64.63;102001.63;6184501;23;20308;-75
2022/08/31 08:57:38;;;;;;;6.47;2.65;;;;;;;17.84;64.85;102004.22;6158537;23;20007;-76
2022/08/31 09:00:10;;;;;;;4.57;2.88;;;;;;;17.92;64.69;102002.19;6184809;23;20012;-76
2022/08/31 09:02:45;;;;;;;8.30;2.80;;;;;;;18.03;65.12;102006.78;6181329;23;20009;-76
2022/08/31 09:05:35;;;;;;;4.45;2.60;;;;;;;18.13;64.46;101996.00;6183542;23;20001;-74
2022/08/31 09:08:40;;;;;;;6.68;2.63;;;;;;;18.25;64.25;102001.38;6185098;23;20001;-74
2022/08/31 09:11:05;;;;;;;6.10;2.60;;;;;;;18.27;63.40;101999.25;6184784;23;20072;-74
2022/08/31 09:13:52;;;;;;;14.75;2.50;;;;;;;18.37;64.05;102004.06;6183527;23;20008;-74
2022/08/31 09:16:41;;;;;;;5.43;2.88;;;;;;;18.40;63.82;101998.06;6158687;23;20385;-73
2022/08/31 09:19:13;;;;;;;3.03;2.47;;;;;;;18.47;63.15;102004.22;6183511;23;20008;-72
2022/08/31 09:21:46;;;;;;;6.40;2.90;;;;;;;18.54;63.32;101987.59;6183655;23;20017;-72
2022/08/31 09:24:26;;;;;;;8.80;2.90;;;;;;;18.54;63.00;101993.91;6183192;23;20001;-73
2022/08/31 09:26:54;;;;;;;8.50;3.28;;;;;;;18.64;63.30;101995.16;6156428;23;20088;-70
2022/08/31 09:29:26;;;;;;;7.85;3.38;;;;;;;18.78;63.85;101993.69;6184112;23;20005;-71
2022/08/31 09:32:00;;;;;;;10.10;3.78;;;;;;;18.84;63.11;101992.72;6184036;23;20005;-70
2022/08/31 09:34:35;;;;;;;9.02;3.90;;;;;;;18.87;62.90;101997.72;6181312;23;20062;-70
2022/08/31 09:37:24;;;;;;;4.38;3.50;;;;;;;18.88;63.28;101990.31;6183878;23;20028;-71
2022/08/31 09:39:51;;;;;;;8.43;3.30;;;;;;;19.01;63.78;101986.34;6183901;23;20016;-71
2022/08/31 09:42:29;;;;;;;10.07;3.40;;;;;;;19.08;63.28;101997.97;6184222;23;20506;-70
2022/08/31 09:44:58;;;;;;;5.18;3.65;;;;;;;19.15;63.01;101997.81;6183283;23;20001;-69
2022/08/31 09:47:52;;;;;;;11.38;3.67;;;;;;;19.25;62.91;101998.75;6184110;23;20088;-70
2022/08/31 09:50:26;;;;;;;6.03;3.65;;;;;;;19.33;62.60;101994.75;6183632;23;20023;-70
2022/08/31 09:56:04;;;;;;;7.22;3.67;;;;;;;19.49;62.08;101993.00;6137909;23;20355;-70
2022/08/31 09:58:32;;;;;;;8.02;3.45;;;;;;;19.54;62.22;101987.56;6184383;23;20008;-70
2022/08/31 10:01:11;;;;;;;6.10;3.72;;;;;;;19.58;62.31;101991.47;6181876;23;20351;-71
2022/08/31 10:03:37;;;;;;;7.32;3.97;;;;;;;19.66;62.11;101981.94;6184606;23;20005;-71
2022/08/31 10:06:05;;;;;;;4.90;4.20;;;;;;;19.71;62.02;101983.91;6184806;23;20005;-70
2022/08/31 10:08:45;;;;;;;7.15;3.90;;;;;;;19.83;61.69;101982.66;6184040;23;20001;-70
2022/08/31 10:11:14;;;;;;;7.30;3.65;;;;;;;19.94;61.68;101983.63;6184262;23;20005;-75
2022/08/31 10:13:46;;;;;;;7.18;3.60;;;;;;;19.99;60.77;101978.16;6184530;23;20012;-71
2022/08/31 10:16:29;;;;;;;7.03;3.90;;;;;;;19.95;61.04;101979.75;6184444;23;20009;-71
2022/08/31 10:19:05;;;;;;;12.10;3.97;;;;;;;20.00;60.93;101979.81;6184575;23;20005;-69
2022/08/31 10:21:50;;;;;;;9.23;4.32;;;;;;;20.04;60.73;101976.56;6184473;23;20031;-70
2022/08/31 10:24:32;;;;;;;8.98;3.75;;;;;;;20.11;61.08;101972.50;6184784;23;20011;-70
2022/08/31 10:27:09;;;;;;;5.40;3.65;;;;;;;20.30;61.16;101981.16;6184220;23;20011;-70
2022/08/31 10:29:42;;;;;;;8.05;4.13;;;;;;;20.34;59.74;101976.78;6183651;23;20013;-70
2022/08/31 10:32:22;;;;;;;7.45;3.90;;;;;;;20.36;59.79;101982.84;6158291;23;20442;-70
2022/08/31 10:35:06;;;;;;;11.15;4.32;;;;;;;20.43;59.50;101985.38;6184597;23;20063;-70
2022/08/31 10:37:54;;;;;;;5.50;3.97;;;;;;;20.56;60.08;101973.06;6184429;23;20330;-70
2022/08/31 10:40:28;;;;;;;8.40;3.80;;;;;;;20.58;59.70;101968.16;6184650;23;20001;-70
2022/08/31 10:43:16;;;;;;;7.80;3.85;;;;;;;20.72;59.78;101971.28;6184369;23;20120;-70
2022/08/31 10:45:45;;;;;;;7.53;4.00;;;;;;;20.89;59.12;101968.34;6182543;23;20017;-70
2022/08/31 10:48:14;;;;;;;7.97;3.80;;;;;;;21.02;58.76;101964.28;6185015;23;20128;-70
2022/08/31 10:50:51;;;;;;;6.13;3.63;;;;;;;21.04;58.41;101957.41;6184252;23;20009;-71
2022/08/31 10:53:41;;;;;;;14.25;4.20;;;;;;;21.10;58.57;101957.44;6184230;23;20359;-70
2022/08/31 10:56:13;;;;;;;7.93;4.07;;;;;;;21.18;58.42;101965.16;6184629;23;20006;-70
2022/08/31 10:59:13;;;;;;;6.45;4.07;;;;;;;21.29;58.52;101964.13;6183959;23;20343;-70
2022/08/31 11:02:26;;;;;;;9.75;3.90;;;;;;;21.35;57.96;101962.22;6176855;23;20451;-70
2022/08/31 11:04:54;;;;;;;8.55;3.83;;;;;;;21.45;57.83;101961.41;6184117;23;20066;-70
2022/08/31 11:07:38;;;;;;;14.32;4.22;;;;;;;21.52;57.56;101957.31;6159158;23;20411;-71
2022/08/31 11:10:25;;;;;;;7.03;4.07;;;;;;;21.57;57.38;101964.75;6186200;23;20009;-71
2022/08/31 11:13:01;;;;;;;8.57;4.13;;;;;;;21.66;57.51;101963.13;6185494;23;20043;-70
2022/08/31 11:15:56;;;;;;;9.35;4.22;;;;;;;21.71;57.29;101965.91;6185063;23;20013;-71
2022/08/31 11:18:40;;;;;;;6.22;3.40;;;;;;;21.89;57.01;101955.44;6186080;23;20005;-71
2022/08/31 11:21:34;;;;;;;11.50;4.30;;;;;;;21.97;56.83;101968.69;6185442;23;20063;-71
2022/08/31 11:24:33;;;;;;;9.30;3.97;;;;;;;22.04;55.69;101966.50;6186064;23;20008;-70
2022/08/31 11:27:10;;;;;;;8.75;3.92;;;;;;;21.89;55.60;101972.81;6186002;23;20012;-70
2022/08/31 11:29:57;;;;;;;7.35;4.13;;;;;;;21.70;56.52;101957.91;6185144;23;20005;-70
2022/08/31 11:32:44;;;;;;;9.60;4.25;;;;;;;21.65;56.54;101961.50;6186023;23;20009;-71
2022/08/31 11:35:11;;;;;;;8.65;3.85;;;;;;;21.65;56.65;101947.72;6185729;23;20024;-70
2022/08/31 11:37:49;;;;;;;6.97;3.72;;;;;;;21.61;56.71;101949.34;6186116;23;20001;-71
2022/08/31 11:40:40;;;;;;;9.73;3.63;;;;;;;21.60;57.21;101947.69;6185642;23;20080;-71
2022/08/31 11:43:26;;;;;;;5.68;3.60;;;;;;;21.74;56.88;101951.59;6185584;23;20013;-70
2022/08/31 11:45:53;;;;;;;10.45;4.05;;;;;;;21.88;55.84;101940.03;6163969;23;20092;-71
2022/08/31 11:48:50;;;;;;;4.28;3.08;;;;;;;22.06;56.91;101944.16;6186047;23;20009;-71